sensor_id;sensor_type;location;lat;lon;timestamp;P1;durP1;ratioP1;P2;durP2;ratioP2
16705;SDS011;8469;60.136;15.180;2024-01-16T00:00:36;0.40;;;0.40;;
16705;SDS011;8469;60.136;15.180;2024-01-16T00:03:04;2.20;;;0.90;;
16705;SDS011;8469;60.136;15.180;2024-01-16T00:05:31;1.57;;;0.78;;
16705;SDS011;8469;60.136;15.180;2024-01-16T00:07:58;1.00;;;0.80;;
16705;SDS011;8469;60.136;15.180;2024-01-16T00:10:29;2.35;;;0.70;;
16705;SDS011;8469;60.136;15.180;2024-01-16T00:12:56;0.60;;;0.60;;
16705;SDS011;8469;60.136;15.180;2024-01-16T00:15:23;0.70;;;0.70;;
16705;SDS011;8469;60.136;15.180;2024-01-16T00:17:55;0.80;;;0.68;;
16705;SDS011;8469;60.136;15.180;2024-01-16T00:20:20;0.65;;;0.65;;
16705;SDS011;8469;60.136;15.180;2024-01-16T00:22:49;0.68;;;0.68;;
16705;SDS011;8469;60.136;15.180;2024-01-16T00:25:16;0.60;;;0.60;;
16705;SDS011;8469;60.136;15.180;2024-01-16T00:27:46;2.40;;;0.80;;
16705;SDS011;8469;60.136;15.180;2024-01-16T00:30:13;0.75;;;0.65;;
16705;SDS011;8469;60.136;15.180;2024-01-16T00:32:40;2.27;;;0.90;;
16705;SDS011;8469;60.136;15.180;2024-01-16T00:35:08;1.30;;;1.20;;
16705;SDS011;8469;60.136;15.180;2024-01-16T00:37:36;1.30;;;0.78;;
16705;SDS011;8469;60.136;15.180;2024-01-16T00:40:04;0.78;;;0.72;;
16705;SDS011;8469;60.136;15.180;2024-01-16T00:42:31;0.40;;;0.40;;
16705;SDS011;8469;60.136;15.180;2024-01-16T00:44:59;0.80;;;0.80;;
16705;SDS011;8469;60.136;15.180;2024-01-16T00:47:26;0.80;;;0.70;;
16705;SDS011;8469;60.136;15.180;2024-01-16T00:49:53;1.60;;;1.50;;
16705;SDS011;8469;60.136;15.180;2024-01-16T00:52:21;0.60;;;0.60;;
16705;SDS011;8469;60.136;15.180;2024-01-16T00:54:48;0.60;;;0.60;;
16705;SDS011;8469;60.136;15.180;2024-01-16T00:57:16;0.97;;;0.97;;
16705;SDS011;8469;60.136;15.180;2024-01-16T00:59:49;1.00;;;0.90;;
16705;SDS011;8469;60.136;15.180;2024-01-16T01:02:14;1.73;;;0.73;;
16705;SDS011;8469;60.136;15.180;2024-01-16T01:04:42;0.80;;;0.80;;
16705;SDS011;8469;60.136;15.180;2024-01-16T01:07:09;2.10;;;1.00;;
16705;SDS011;8469;60.136;15.180;2024-01-16T01:09:38;1.70;;;0.72;;
16705;SDS011;8469;60.136;15.180;2024-01-16T01:12:05;0.80;;;0.80;;
16705;SDS011;8469;60.136;15.180;2024-01-16T01:14:33;0.80;;;0.80;;
16705;SDS011;8469;60.136;15.180;2024-01-16T01:17:00;2.20;;;0.70;;
16705;SDS011;8469;60.136;15.180;2024-01-16T01:19:28;0.80;;;0.80;;
16705;SDS011;8469;60.136;15.180;2024-01-16T01:21:56;0.55;;;0.55;;
16705;SDS011;8469;60.136;15.180;2024-01-16T01:24:26;0.60;;;0.60;;
16705;SDS011;8469;60.136;15.180;2024-01-16T01:26:53;0.60;;;0.60;;
16705;SDS011;8469;60.136;15.180;2024-01-16T01:29:21;0.57;;;0.57;;
16705;SDS011;8469;60.136;15.180;2024-01-16T01:31:48;0.70;;;0.70;;
16705;SDS011;8469;60.136;15.180;2024-01-16T01:34:15;0.62;;;0.62;;
16705;SDS011;8469;60.136;15.180;2024-01-16T01:36:43;0.65;;;0.45;;
16705;SDS011;8469;60.136;15.180;2024-01-16T01:39:10;0.70;;;0.70;;
16705;SDS011;8469;60.136;15.180;2024-01-16T01:41:38;0.98;;;0.78;;
16705;SDS011;8469;60.136;15.180;2024-01-16T01:44:06;0.70;;;0.70;;
16705;SDS011;8469;60.136;15.180;2024-01-16T01:46:33;0.80;;;0.70;;
16705;SDS011;8469;60.136;15.180;2024-01-16T01:49:01;0.50;;;0.50;;
16705;SDS011;8469;60.136;15.180;2024-01-16T01:51:30;0.70;;;0.70;;
16705;SDS011;8469;60.136;15.180;2024-01-16T01:53:59;0.55;;;0.55;;
16705;SDS011;8469;60.136;15.180;2024-01-16T01:56:29;0.50;;;0.50;;
16705;SDS011;8469;60.136;15.180;2024-01-16T01:58:57;3.70;;;0.90;;
16705;SDS011;8469;60.136;15.180;2024-01-16T02:01:26;0.60;;;0.60;;
16705;SDS011;8469;60.136;15.180;2024-01-16T02:03:56;0.80;;;0.70;;
16705;SDS011;8469;60.136;15.180;2024-01-16T02:06:24;1.80;;;0.80;;
16705;SDS011;8469;60.136;15.180;2024-01-16T02:08:52;0.70;;;0.70;;
16705;SDS011;8469;60.136;15.180;2024-01-16T02:11:20;0.70;;;0.70;;
16705;SDS011;8469;60.136;15.180;2024-01-16T02:13:47;0.78;;;0.78;;
16705;SDS011;8469;60.136;15.180;2024-01-16T02:16:21;0.85;;;0.68;;
16705;SDS011;8469;60.136;15.180;2024-01-16T02:18:46;1.40;;;0.95;;
16705;SDS011;8469;60.136;15.180;2024-01-16T02:21:20;0.77;;;0.77;;
16705;SDS011;8469;60.136;15.180;2024-01-16T02:23:44;0.70;;;0.70;;
16705;SDS011;8469;60.136;15.180;2024-01-16T02:26:17;0.90;;;0.90;;
16705;SDS011;8469;60.136;15.180;2024-01-16T02:28:42;1.40;;;0.70;;
16705;SDS011;8469;60.136;15.180;2024-01-16T02:31:09;1.20;;;0.90;;
16705;SDS011;8469;60.136;15.180;2024-01-16T02:33:38;1.85;;;0.82;;
16705;SDS011;8469;60.136;15.180;2024-01-16T02:36:06;1.10;;;0.80;;
16705;SDS011;8469;60.136;15.180;2024-01-16T02:38:33;0.70;;;0.70;;
16705;SDS011;8469;60.136;15.180;2024-01-16T02:41:00;1.70;;;0.70;;
16705;SDS011;8469;60.136;15.180;2024-01-16T02:43:28;0.90;;;0.90;;
16705;SDS011;8469;60.136;15.180;2024-01-16T02:45:55;0.57;;;0.57;;
16705;SDS011;8469;60.136;15.180;2024-01-16T02:48:22;0.40;;;0.40;;
16705;SDS011;8469;60.136;15.180;2024-01-16T02:50:52;0.70;;;0.70;;
16705;SDS011;8469;60.136;15.180;2024-01-16T02:53:20;0.70;;;0.70;;
16705;SDS011;8469;60.136;15.180;2024-01-16T02:55:47;0.50;;;0.50;;
16705;SDS011;8469;60.136;15.180;2024-01-16T02:58:18;0.62;;;0.62;;
16705;SDS011;8469;60.136;15.180;2024-01-16T03:00:45;0.60;;;0.60;;
16705;SDS011;8469;60.136;15.180;2024-01-16T03:03:13;1.30;;;0.80;;
16705;SDS011;8469;60.136;15.180;2024-01-16T03:05:41;0.60;;;0.60;;
16705;SDS011;8469;60.136;15.180;2024-01-16T03:08:08;1.30;;;0.65;;
16705;SDS011;8469;60.136;15.180;2024-01-16T03:10:36;0.70;;;0.70;;
16705;SDS011;8469;60.136;15.180;2024-01-16T03:13:03;0.60;;;0.60;;
16705;SDS011;8469;60.136;15.180;2024-01-16T03:15:31;0.50;;;0.50;;
16705;SDS011;8469;60.136;15.180;2024-01-16T03:17:58;0.70;;;0.70;;
16705;SDS011;8469;60.136;15.180;2024-01-16T03:20:27;1.10;;;0.90;;
16705;SDS011;8469;60.136;15.180;2024-01-16T03:22:55;0.60;;;0.60;;
16705;SDS011;8469;60.136;15.180;2024-01-16T03:25:22;0.85;;;0.85;;
16705;SDS011;8469;60.136;15.180;2024-01-16T03:27:53;2.22;;;0.70;;
16705;SDS011;8469;60.136;15.180;2024-01-16T03:30:20;0.78;;;0.78;;
16705;SDS011;8469;60.136;15.180;2024-01-16T03:32:48;3.20;;;1.05;;
16705;SDS011;8469;60.136;15.180;2024-01-16T03:35:15;0.68;;;0.68;;
16705;SDS011;8469;60.136;15.180;2024-01-16T03:37:42;2.40;;;0.80;;
16705;SDS011;8469;60.136;15.180;2024-01-16T03:40:10;0.60;;;0.60;;
16705;SDS011;8469;60.136;15.180;2024-01-16T03:42:39;0.50;;;0.50;;
16705;SDS011;8469;60.136;15.180;2024-01-16T03:45:06;0.70;;;0.70;;
16705;SDS011;8469;60.136;15.180;2024-01-16T03:47:34;0.68;;;0.68;;
16705;SDS011;8469;60.136;15.180;2024-01-16T03:50:01;0.62;;;0.62;;
16705;SDS011;8469;60.136;15.180;2024-01-16T03:52:33;0.70;;;0.70;;
16705;SDS011;8469;60.136;15.180;2024-01-16T03:54:57;0.80;;;0.80;;
16705;SDS011;8469;60.136;15.180;2024-01-16T03:57:25;2.90;;;0.90;;
16705;SDS011;8469;60.136;15.180;2024-01-16T03:59:52;0.80;;;0.80;;
16705;SDS011;8469;60.136;15.180;2024-01-16T04:02:19;2.60;;;0.80;;
16705;SDS011;8469;60.136;15.180;2024-01-16T04:04:47;0.90;;;0.90;;
16705;SDS011;8469;60.136;15.180;2024-01-16T04:07:14;0.70;;;0.70;;
16705;SDS011;8469;60.136;15.180;2024-01-16T04:09:42;0.62;;;0.62;;
16705;SDS011;8469;60.136;15.180;2024-01-16T04:12:10;6.00;;;0.90;;
16705;SDS011;8469;60.136;15.180;2024-01-16T04:14:37;1.60;;;0.80;;
16705;SDS011;8469;60.136;15.180;2024-01-16T04:17:05;2.50;;;1.00;;
16705;SDS011;8469;60.136;15.180;2024-01-16T04:19:32;1.77;;;1.00;;
16705;SDS011;8469;60.136;15.180;2024-01-16T04:22:00;3.10;;;0.82;;
16705;SDS011;8469;60.136;15.180;2024-01-16T04:24:27;1.80;;;1.10;;
16705;SDS011;8469;60.136;15.180;2024-01-16T04:26:55;1.55;;;1.00;;
16705;SDS011;8469;60.136;15.180;2024-01-16T04:29:22;0.90;;;0.90;;
16705;SDS011;8469;60.136;15.180;2024-01-16T04:31:51;1.60;;;1.10;;
16705;SDS011;8469;60.136;15.180;2024-01-16T04:34:19;4.25;;;0.93;;
16705;SDS011;8469;60.136;15.180;2024-01-16T04:36:46;1.37;;;1.10;;
16705;SDS011;8469;60.136;15.180;2024-01-16T04:39:14;2.33;;;1.00;;
16705;SDS011;8469;60.136;15.180;2024-01-16T04:41:41;0.60;;;0.60;;
16705;SDS011;8469;60.136;15.180;2024-01-16T04:44:08;1.00;;;0.90;;
16705;SDS011;8469;60.136;15.180;2024-01-16T04:46:36;3.02;;;0.98;;
16705;SDS011;8469;60.136;15.180;2024-01-16T04:49:03;0.85;;;0.85;;
16705;SDS011;8469;60.136;15.180;2024-01-16T04:51:31;1.77;;;0.87;;
16705;SDS011;8469;60.136;15.180;2024-01-16T04:54:00;0.90;;;0.90;;
16705;SDS011;8469;60.136;15.180;2024-01-16T04:56:27;1.32;;;0.90;;
16705;SDS011;8469;60.136;15.180;2024-01-16T04:58:55;3.10;;;0.80;;
16705;SDS011;8469;60.136;15.180;2024-01-16T05:01:22;1.87;;;1.40;;
16705;SDS011;8469;60.136;15.180;2024-01-16T05:03:51;0.80;;;0.80;;
16705;SDS011;8469;60.136;15.180;2024-01-16T05:06:18;0.93;;;0.90;;
16705;SDS011;8469;60.136;15.180;2024-01-16T05:08:46;1.50;;;1.10;;
16705;SDS011;8469;60.136;15.180;2024-01-16T05:11:13;1.07;;;0.93;;
16705;SDS011;8469;60.136;15.180;2024-01-16T05:13:40;3.27;;;1.10;;
16705;SDS011;8469;60.136;15.180;2024-01-16T05:16:09;2.90;;;1.50;;
16705;SDS011;8469;60.136;15.180;2024-01-16T05:18:37;2.50;;;1.30;;
16705;SDS011;8469;60.136;15.180;2024-01-16T05:21:07;1.98;;;1.27;;
16705;SDS011;8469;60.136;15.180;2024-01-16T05:23:34;1.37;;;1.17;;
16705;SDS011;8469;60.136;15.180;2024-01-16T05:26:02;2.60;;;1.40;;
16705;SDS011;8469;60.136;15.180;2024-01-16T05:28:29;1.60;;;1.12;;
16705;SDS011;8469;60.136;15.180;2024-01-16T05:30:56;2.30;;;1.10;;
16705;SDS011;8469;60.136;15.180;2024-01-16T05:33:24;1.37;;;1.22;;
16705;SDS011;8469;60.136;15.180;2024-01-16T05:35:51;1.47;;;1.20;;
16705;SDS011;8469;60.136;15.180;2024-01-16T05:38:18;0.90;;;0.90;;
16705;SDS011;8469;60.136;15.180;2024-01-16T05:40:46;1.67;;;1.27;;
16705;SDS011;8469;60.136;15.180;2024-01-16T05:43:13;1.62;;;1.25;;
16705;SDS011;8469;60.136;15.180;2024-01-16T05:45:41;3.17;;;1.32;;
16705;SDS011;8469;60.136;15.180;2024-01-16T05:48:08;1.10;;;1.00;;
16705;SDS011;8469;60.136;15.180;2024-01-16T05:50:36;3.70;;;1.35;;
16705;SDS011;8469;60.136;15.180;2024-01-16T05:53:03;3.20;;;2.12;;
16705;SDS011;8469;60.136;15.180;2024-01-16T05:55:31;3.87;;;2.02;;
16705;SDS011;8469;60.136;15.180;2024-01-16T05:57:58;4.00;;;2.30;;
16705;SDS011;8469;60.136;15.180;2024-01-16T06:00:26;12.20;;;3.42;;
16705;SDS011;8469;60.136;15.180;2024-01-16T06:02:53;8.80;;;3.42;;
16705;SDS011;8469;60.136;15.180;2024-01-16T06:05:21;7.15;;;2.52;;
16705;SDS011;8469;60.136;15.180;2024-01-16T06:07:48;5.47;;;2.85;;
16705;SDS011;8469;60.136;15.180;2024-01-16T06:10:15;5.17;;;2.27;;
16705;SDS011;8469;60.136;15.180;2024-01-16T06:12:43;5.67;;;2.58;;
16705;SDS011;8469;60.136;15.180;2024-01-16T06:15:10;6.05;;;1.90;;
16705;SDS011;8469;60.136;15.180;2024-01-16T06:17:40;4.30;;;2.55;;
16705;SDS011;8469;60.136;15.180;2024-01-16T06:20:08;5.55;;;2.37;;
16705;SDS011;8469;60.136;15.180;2024-01-16T06:22:35;6.03;;;2.55;;
16705;SDS011;8469;60.136;15.180;2024-01-16T06:25:03;4.40;;;2.20;;
16705;SDS011;8469;60.136;15.180;2024-01-16T06:27:30;5.10;;;2.02;;
16705;SDS011;8469;60.136;15.180;2024-01-16T06:29:58;5.75;;;1.98;;
16705;SDS011;8469;60.136;15.180;2024-01-16T06:32:25;2.75;;;1.82;;
16705;SDS011;8469;60.136;15.180;2024-01-16T06:34:52;3.20;;;1.50;;
16705;SDS011;8469;60.136;15.180;2024-01-16T06:37:20;7.53;;;1.50;;
16705;SDS011;8469;60.136;15.180;2024-01-16T06:39:47;2.02;;;1.60;;
16705;SDS011;8469;60.136;15.180;2024-01-16T06:42:14;6.12;;;2.00;;
16705;SDS011;8469;60.136;15.180;2024-01-16T06:44:41;4.10;;;2.00;;
16705;SDS011;8469;60.136;15.180;2024-01-16T06:47:09;1.73;;;1.37;;
16705;SDS011;8469;60.136;15.180;2024-01-16T06:49:38;2.55;;;1.40;;
16705;SDS011;8469;60.136;15.180;2024-01-16T06:52:06;4.00;;;1.50;;
16705;SDS011;8469;60.136;15.180;2024-01-16T06:54:34;8.98;;;2.95;;
16705;SDS011;8469;60.136;15.180;2024-01-16T06:57:01;6.40;;;2.40;;
16705;SDS011;8469;60.136;15.180;2024-01-16T06:59:29;3.67;;;2.50;;
16705;SDS011;8469;60.136;15.180;2024-01-16T07:01:58;5.85;;;1.75;;
16705;SDS011;8469;60.136;15.180;2024-01-16T07:04:25;0.93;;;0.93;;
16705;SDS011;8469;60.136;15.180;2024-01-16T07:06:52;1.30;;;1.20;;
16705;SDS011;8469;60.136;15.180;2024-01-16T07:09:20;3.60;;;1.60;;
16705;SDS011;8469;60.136;15.180;2024-01-16T07:11:47;5.27;;;2.50;;
16705;SDS011;8469;60.136;15.180;2024-01-16T07:14:14;9.83;;;4.12;;
16705;SDS011;8469;60.136;15.180;2024-01-16T07:16:42;5.78;;;2.52;;
16705;SDS011;8469;60.136;15.180;2024-01-16T07:19:09;5.80;;;2.83;;
16705;SDS011;8469;60.136;15.180;2024-01-16T07:21:41;4.45;;;2.30;;
16705;SDS011;8469;60.136;15.180;2024-01-16T07:24:07;3.95;;;1.40;;
16705;SDS011;8469;60.136;15.180;2024-01-16T07:26:34;12.40;;;3.50;;
16705;SDS011;8469;60.136;15.180;2024-01-16T07:29:01;2.92;;;1.70;;
16705;SDS011;8469;60.136;15.180;2024-01-16T07:31:29;2.08;;;1.45;;
16705;SDS011;8469;60.136;15.180;2024-01-16T07:33:56;3.45;;;1.82;;
16705;SDS011;8469;60.136;15.180;2024-01-16T07:36:24;5.83;;;1.60;;
16705;SDS011;8469;60.136;15.180;2024-01-16T07:38:51;5.70;;;2.42;;
16705;SDS011;8469;60.136;15.180;2024-01-16T07:41:18;8.88;;;4.00;;
16705;SDS011;8469;60.136;15.180;2024-01-16T07:43:46;18.55;;;6.97;;
16705;SDS011;8469;60.136;15.180;2024-01-16T07:46:13;15.63;;;5.90;;
16705;SDS011;8469;60.136;15.180;2024-01-16T07:48:40;33.55;;;9.38;;
16705;SDS011;8469;60.136;15.180;2024-01-16T07:51:08;44.48;;;10.40;;
16705;SDS011;8469;60.136;15.180;2024-01-16T07:53:35;48.45;;;11.08;;
16705;SDS011;8469;60.136;15.180;2024-01-16T07:56:02;28.15;;;7.42;;
16705;SDS011;8469;60.136;15.180;2024-01-16T07:58:30;10.05;;;2.72;;
16705;SDS011;8469;60.136;15.180;2024-01-16T08:00:57;5.00;;;2.62;;
16705;SDS011;8469;60.136;15.180;2024-01-16T08:03:24;2.30;;;2.05;;
16705;SDS011;8469;60.136;15.180;2024-01-16T08:05:52;5.15;;;2.45;;
16705;SDS011;8469;60.136;15.180;2024-01-16T08:08:19;12.23;;;2.33;;
16705;SDS011;8469;60.136;15.180;2024-01-16T08:10:46;1.10;;;1.10;;
16705;SDS011;8469;60.136;15.180;2024-01-16T08:13:14;1.45;;;1.35;;
16705;SDS011;8469;60.136;15.180;2024-01-16T08:15:41;0.75;;;0.75;;
16705;SDS011;8469;60.136;15.180;2024-01-16T08:18:09;2.05;;;1.77;;
16705;SDS011;8469;60.136;15.180;2024-01-16T08:20:36;5.72;;;2.35;;
16705;SDS011;8469;60.136;15.180;2024-01-16T08:23:03;2.15;;;1.75;;
16705;SDS011;8469;60.136;15.180;2024-01-16T08:25:31;3.50;;;1.85;;
16705;SDS011;8469;60.136;15.180;2024-01-16T08:27:58;9.30;;;3.40;;
16705;SDS011;8469;60.136;15.180;2024-01-16T08:30:27;6.67;;;2.75;;
16705;SDS011;8469;60.136;15.180;2024-01-16T08:32:54;5.83;;;3.02;;
16705;SDS011;8469;60.136;15.180;2024-01-16T08:35:21;7.00;;;3.00;;
16705;SDS011;8469;60.136;15.180;2024-01-16T08:37:50;4.35;;;1.52;;
16705;SDS011;8469;60.136;15.180;2024-01-16T08:40:17;6.05;;;2.47;;
16705;SDS011;8469;60.136;15.180;2024-01-16T08:42:53;4.33;;;1.95;;
16705;SDS011;8469;60.136;15.180;2024-01-16T08:45:29;5.47;;;2.35;;
16705;SDS011;8469;60.136;15.180;2024-01-16T08:47:53;5.05;;;2.87;;
16705;SDS011;8469;60.136;15.180;2024-01-16T08:50:20;4.28;;;2.83;;
16705;SDS011;8469;60.136;15.180;2024-01-16T08:52:48;3.55;;;2.40;;
16705;SDS011;8469;60.136;15.180;2024-01-16T08:55:18;9.45;;;4.15;;
16705;SDS011;8469;60.136;15.180;2024-01-16T08:57:45;8.08;;;4.05;;
16705;SDS011;8469;60.136;15.180;2024-01-16T09:00:13;11.78;;;3.55;;
16705;SDS011;8469;60.136;15.180;2024-01-16T09:02:41;9.60;;;3.30;;
16705;SDS011;8469;60.136;15.180;2024-01-16T09:05:09;8.78;;;3.37;;
16705;SDS011;8469;60.136;15.180;2024-01-16T09:07:36;13.15;;;3.90;;
16705;SDS011;8469;60.136;15.180;2024-01-16T09:10:03;11.48;;;3.98;;
16705;SDS011;8469;60.136;15.180;2024-01-16T09:12:31;14.00;;;4.78;;
16705;SDS011;8469;60.136;15.180;2024-01-16T09:14:58;12.30;;;4.70;;
16705;SDS011;8469;60.136;15.180;2024-01-16T09:17:26;11.55;;;4.05;;
16705;SDS011;8469;60.136;15.180;2024-01-16T09:19:53;9.50;;;4.15;;
16705;SDS011;8469;60.136;15.180;2024-01-16T09:22:20;10.43;;;5.00;;
16705;SDS011;8469;60.136;15.180;2024-01-16T09:24:47;8.20;;;3.58;;
16705;SDS011;8469;60.136;15.180;2024-01-16T09:27:15;9.25;;;3.60;;
16705;SDS011;8469;60.136;15.180;2024-01-16T09:29:42;16.10;;;4.80;;
16705;SDS011;8469;60.136;15.180;2024-01-16T09:32:10;12.07;;;4.87;;
16705;SDS011;8469;60.136;15.180;2024-01-16T09:34:37;7.90;;;3.95;;
16705;SDS011;8469;60.136;15.180;2024-01-16T09:37:06;10.40;;;3.37;;
16705;SDS011;8469;60.136;15.180;2024-01-16T09:39:33;8.50;;;3.67;;
16705;SDS011;8469;60.136;15.180;2024-01-16T09:42:02;8.55;;;3.58;;
16705;SDS011;8469;60.136;15.180;2024-01-16T09:44:30;9.77;;;3.63;;
16705;SDS011;8469;60.136;15.180;2024-01-16T09:46:58;8.73;;;3.65;;
16705;SDS011;8469;60.136;15.180;2024-01-16T09:49:26;9.00;;;3.35;;
16705;SDS011;8469;60.136;15.180;2024-01-16T09:51:59;9.00;;;3.35;;
16705;SDS011;8469;60.136;15.180;2024-01-16T09:54:24;11.12;;;4.17;;
16705;SDS011;8469;60.136;15.180;2024-01-16T09:56:53;11.15;;;3.83;;
16705;SDS011;8469;60.136;15.180;2024-01-16T09:59:21;7.90;;;3.62;;
16705;SDS011;8469;60.136;15.180;2024-01-16T10:01:49;9.48;;;3.77;;
16705;SDS011;8469;60.136;15.180;2024-01-16T10:04:18;9.10;;;3.87;;
16705;SDS011;8469;60.136;15.180;2024-01-16T10:06:45;13.32;;;4.08;;
16705;SDS011;8469;60.136;15.180;2024-01-16T10:09:13;13.55;;;5.08;;
16705;SDS011;8469;60.136;15.180;2024-01-16T10:11:40;12.90;;;4.33;;
16705;SDS011;8469;60.136;15.180;2024-01-16T10:14:08;11.33;;;4.78;;
16705;SDS011;8469;60.136;15.180;2024-01-16T10:17:09;5.92;;;2.45;;
16705;SDS011;8469;60.136;15.180;2024-01-16T10:19:10;14.15;;;4.90;;
16705;SDS011;8469;60.136;15.180;2024-01-16T10:21:38;13.43;;;3.92;;
16705;SDS011;8469;60.136;15.180;2024-01-16T10:24:13;10.08;;;4.37;;
16705;SDS011;8469;60.136;15.180;2024-01-16T10:26:37;15.60;;;4.70;;
16705;SDS011;8469;60.136;15.180;2024-01-16T10:29:04;10.28;;;4.20;;
16705;SDS011;8469;60.136;15.180;2024-01-16T10:31:32;14.00;;;5.72;;
16705;SDS011;8469;60.136;15.180;2024-01-16T10:33:59;17.25;;;5.20;;
16705;SDS011;8469;60.136;15.180;2024-01-16T10:36:27;19.35;;;5.25;;
16705;SDS011;8469;60.136;15.180;2024-01-16T10:38:55;7.17;;;2.80;;
16705;SDS011;8469;60.136;15.180;2024-01-16T10:41:24;10.68;;;3.85;;
16705;SDS011;8469;60.136;15.180;2024-01-16T10:44:03;7.08;;;3.58;;
16705;SDS011;8469;60.136;15.180;2024-01-16T10:46:33;4.70;;;2.17;;
16705;SDS011;8469;60.136;15.180;2024-01-16T10:49:01;7.63;;;3.27;;
16705;SDS011;8469;60.136;15.180;2024-01-16T10:51:29;9.60;;;4.03;;
16705;SDS011;8469;60.136;15.180;2024-01-16T10:53:58;11.55;;;4.20;;
16705;SDS011;8469;60.136;15.180;2024-01-16T10:56:28;9.80;;;3.33;;
16705;SDS011;8469;60.136;15.180;2024-01-16T10:59:05;14.45;;;4.28;;
16705;SDS011;8469;60.136;15.180;2024-01-16T11:01:29;8.20;;;3.35;;
16705;SDS011;8469;60.136;15.180;2024-01-16T11:03:53;6.17;;;2.67;;
16705;SDS011;8469;60.136;15.180;2024-01-16T11:06:23;7.97;;;3.40;;
16705;SDS011;8469;60.136;15.180;2024-01-16T11:08:51;7.40;;;3.20;;
16705;SDS011;8469;60.136;15.180;2024-01-16T11:11:19;9.18;;;3.40;;
16705;SDS011;8469;60.136;15.180;2024-01-16T11:13:47;9.15;;;3.98;;
16705;SDS011;8469;60.136;15.180;2024-01-16T11:16:16;8.30;;;3.05;;
16705;SDS011;8469;60.136;15.180;2024-01-16T11:18:44;7.33;;;3.17;;
16705;SDS011;8469;60.136;15.180;2024-01-16T11:21:14;10.13;;;4.33;;
16705;SDS011;8469;60.136;15.180;2024-01-16T11:23:42;14.68;;;4.72;;
16705;SDS011;8469;60.136;15.180;2024-01-16T11:26:27;6.83;;;3.47;;
16705;SDS011;8469;60.136;15.180;2024-01-16T11:28:53;10.25;;;3.85;;
16705;SDS011;8469;60.136;15.180;2024-01-16T11:31:32;7.92;;;3.55;;
16705;SDS011;8469;60.136;15.180;2024-01-16T11:34:00;10.70;;;4.97;;
16705;SDS011;8469;60.136;15.180;2024-01-16T11:39:18;7.67;;;3.90;;
16705;SDS011;8469;60.136;15.180;2024-01-16T11:41:58;10.03;;;4.78;;
16705;SDS011;8469;60.136;15.180;2024-01-16T11:44:45;11.57;;;4.67;;
16705;SDS011;8469;60.136;15.180;2024-01-16T11:47:20;8.85;;;3.70;;
16705;SDS011;8469;60.136;15.180;2024-01-16T11:49:48;5.75;;;3.15;;
16705;SDS011;8469;60.136;15.180;2024-01-16T11:52:18;9.08;;;3.77;;
16705;SDS011;8469;60.136;15.180;2024-01-16T11:54:44;9.53;;;3.47;;
16705;SDS011;8469;60.136;15.180;2024-01-16T12:00:00;7.90;;;3.72;;
16705;SDS011;8469;60.136;15.180;2024-01-16T12:02:34;9.83;;;4.03;;
16705;SDS011;8469;60.136;15.180;2024-01-16T12:04:58;6.13;;;3.10;;
16705;SDS011;8469;60.136;15.180;2024-01-16T12:07:27;8.98;;;3.47;;
16705;SDS011;8469;60.136;15.180;2024-01-16T12:09:58;11.57;;;4.35;;
16705;SDS011;8469;60.136;15.180;2024-01-16T12:12:24;11.65;;;4.50;;
16705;SDS011;8469;60.136;15.180;2024-01-16T12:14:51;10.03;;;4.67;;
16705;SDS011;8469;60.136;15.180;2024-01-16T12:17:22;14.65;;;4.37;;
16705;SDS011;8469;60.136;15.180;2024-01-16T12:19:49;16.42;;;5.20;;
16705;SDS011;8469;60.136;15.180;2024-01-16T12:22:17;14.50;;;4.60;;
16705;SDS011;8469;60.136;15.180;2024-01-16T12:24:55;17.17;;;5.33;;
16705;SDS011;8469;60.136;15.180;2024-01-16T12:27:19;16.80;;;4.90;;
16705;SDS011;8469;60.136;15.180;2024-01-16T12:29:47;13.10;;;5.65;;
16705;SDS011;8469;60.136;15.180;2024-01-16T12:32:14;18.45;;;6.03;;
16705;SDS011;8469;60.136;15.180;2024-01-16T12:34:46;20.95;;;6.85;;
16705;SDS011;8469;60.136;15.180;2024-01-16T12:37:14;21.50;;;7.03;;
16705;SDS011;8469;60.136;15.180;2024-01-16T12:39:41;17.02;;;5.67;;
16705;SDS011;8469;60.136;15.180;2024-01-16T12:42:09;75.80;;;21.55;;
16705;SDS011;8469;60.136;15.180;2024-01-16T12:44:38;20.70;;;6.70;;
16705;SDS011;8469;60.136;15.180;2024-01-16T12:47:08;19.70;;;6.40;;
16705;SDS011;8469;60.136;15.180;2024-01-16T12:49:42;14.83;;;5.53;;
16705;SDS011;8469;60.136;15.180;2024-01-16T12:52:19;19.80;;;6.43;;
16705;SDS011;8469;60.136;15.180;2024-01-16T12:54:58;31.90;;;6.47;;
16705;SDS011;8469;60.136;15.180;2024-01-16T12:57:19;16.55;;;4.28;;
16705;SDS011;8469;60.136;15.180;2024-01-16T12:59:48;8.60;;;2.80;;
16705;SDS011;8469;60.136;15.180;2024-01-16T13:02:22;9.93;;;2.55;;
16705;SDS011;8469;60.136;15.180;2024-01-16T13:04:59;6.53;;;2.00;;
16705;SDS011;8469;60.136;15.180;2024-01-16T13:07:18;7.12;;;2.52;;
16705;SDS011;8469;60.136;15.180;2024-01-16T13:09:45;6.00;;;2.22;;
16705;SDS011;8469;60.136;15.180;2024-01-16T13:12:22;6.78;;;2.22;;
16705;SDS011;8469;60.136;15.180;2024-01-16T13:14:42;6.60;;;3.10;;
16705;SDS011;8469;60.136;15.180;2024-01-16T13:17:09;15.40;;;6.33;;
16705;SDS011;8469;60.136;15.180;2024-01-16T13:19:37;4.60;;;2.80;;
16705;SDS011;8469;60.136;15.180;2024-01-16T13:22:04;4.67;;;2.30;;
16705;SDS011;8469;60.136;15.180;2024-01-16T13:24:33;4.58;;;1.90;;
16705;SDS011;8469;60.136;15.180;2024-01-16T13:27:00;4.65;;;2.00;;
16705;SDS011;8469;60.136;15.180;2024-01-16T13:29:28;4.62;;;2.02;;
16705;SDS011;8469;60.136;15.180;2024-01-16T13:31:55;4.50;;;2.75;;
16705;SDS011;8469;60.136;15.180;2024-01-16T13:34:22;8.17;;;2.50;;
16705;SDS011;8469;60.136;15.180;2024-01-16T13:36:50;8.13;;;2.63;;
16705;SDS011;8469;60.136;15.180;2024-01-16T13:39:18;3.53;;;1.93;;
16705;SDS011;8469;60.136;15.180;2024-01-16T13:41:46;6.70;;;2.33;;
16705;SDS011;8469;60.136;15.180;2024-01-16T13:44:14;5.58;;;2.00;;
16705;SDS011;8469;60.136;15.180;2024-01-16T13:46:41;3.33;;;1.80;;
16705;SDS011;8469;60.136;15.180;2024-01-16T13:49:10;7.72;;;3.12;;
16705;SDS011;8469;60.136;15.180;2024-01-16T13:51:37;4.00;;;2.50;;
16705;SDS011;8469;60.136;15.180;2024-01-16T13:54:06;3.52;;;1.90;;
16705;SDS011;8469;60.136;15.180;2024-01-16T13:56:33;3.62;;;1.80;;
16705;SDS011;8469;60.136;15.180;2024-01-16T13:59:01;3.67;;;1.90;;
16705;SDS011;8469;60.136;15.180;2024-01-16T14:01:28;12.30;;;5.72;;
16705;SDS011;8469;60.136;15.180;2024-01-16T14:03:55;7.60;;;1.27;;
16705;SDS011;8469;60.136;15.180;2024-01-16T14:06:23;2.87;;;1.82;;
16705;SDS011;8469;60.136;15.180;2024-01-16T14:08:50;2.83;;;1.62;;
16705;SDS011;8469;60.136;15.180;2024-01-16T14:11:17;2.05;;;1.25;;
16705;SDS011;8469;60.136;15.180;2024-01-16T14:13:45;2.67;;;1.30;;
16705;SDS011;8469;60.136;15.180;2024-01-16T14:16:12;7.42;;;3.05;;
16705;SDS011;8469;60.136;15.180;2024-01-16T14:18:40;1.45;;;0.95;;
16705;SDS011;8469;60.136;15.180;2024-01-16T14:21:07;1.55;;;1.45;;
16705;SDS011;8469;60.136;15.180;2024-01-16T14:23:34;0.90;;;0.90;;
16705;SDS011;8469;60.136;15.180;2024-01-16T14:26:02;1.00;;;0.90;;
16705;SDS011;8469;60.136;15.180;2024-01-16T14:28:29;1.00;;;0.70;;
16705;SDS011;8469;60.136;15.180;2024-01-16T14:30:59;0.72;;;0.70;;
16705;SDS011;8469;60.136;15.180;2024-01-16T14:33:27;1.40;;;1.30;;
16705;SDS011;8469;60.136;15.180;2024-01-16T14:35:54;0.80;;;0.80;;
16705;SDS011;8469;60.136;15.180;2024-01-16T14:38:22;1.20;;;0.70;;
16705;SDS011;8469;60.136;15.180;2024-01-16T14:40:49;0.88;;;0.80;;
16705;SDS011;8469;60.136;15.180;2024-01-16T14:43:18;0.75;;;0.70;;
16705;SDS011;8469;60.136;15.180;2024-01-16T14:45:45;1.37;;;0.97;;
16705;SDS011;8469;60.136;15.180;2024-01-16T14:48:14;0.80;;;0.80;;
16705;SDS011;8469;60.136;15.180;2024-01-16T14:50:42;1.32;;;0.93;;
16705;SDS011;8469;60.136;15.180;2024-01-16T14:53:10;3.40;;;1.62;;
16705;SDS011;8469;60.136;15.180;2024-01-16T14:55:37;3.30;;;1.73;;